Vliegveld raporten

 

EHGR - Gilze-Rijen Rnla, Netherlands
Distance from station: WZW 7km
Updated: 24-06-2018 08:25
Zwaar bewolkt
Zwaar bewolkt
 Wind van N
Wind: N 9 km/h
Temperatuur: 14°C
Dauwpunt: 11°C
Vochtigheid: 82%
Barometer: 1024 hPa
Clouds: Zwaar bewolkt
Visibility: 10 km
Cloud details: Few Clouds 823 m
Zwaar bewolkt 2835 m
2018/06/24 06:25 EHGR 240625Z AUTO 01005KT 300V060 9999 FEW027 OVC093 14/11 Q1024 BLU
EHEH - Eindhoven Rnlafb, Netherlands
Distance from station: OZO 30km
Updated: 24-06-2018 08:55
Mist, Meestal bewolkt
Mist, Meestal bewolkt
 Wind van N
Wind: N 9 km/h
Temperatuur: 14°C
Dauwpunt: 12°C
Vochtigheid: 88%
Barometer: 1024 hPa
Overzicht: Mist
Clouds: Meestal bewolkt
Visibility: 9 km
Cloud details: Few Clouds 213 m
Meestal bewolkt 244 m
Meestal bewolkt 305 m
2018/06/24 06:55 EHEH 240655Z AUTO 01005KT 340V060 9000 BR FEW007 BKN008 BKN010 14/12 Q1024 GRN 33007KT 8000 FEW005 SCT007 BKN025 TEMPO SCT005 SCT007 BKN025
EHVK - Volkel Rnlafb, Netherlands
Distance from station: O 48km
Updated: 24-06-2018 08:55
Zwaar bewolkt
Zwaar bewolkt
 Wind van N
Wind: N 7 km/h
Temperatuur: 14°C
Dauwpunt: 10°C
Vochtigheid: 77%
Barometer: 1024 hPa
Clouds: Zwaar bewolkt
Visibility: 10 km
Cloud details: Gedeeltelijk bewolkt 884 m
Meestal bewolkt 2286 m
Zwaar bewolkt 3048 m
2018/06/24 06:55 EHVK 240655Z AUTO 01004KT 330V030 9999 SCT029 BKN075 OVC100 14/10 Q1024 BLU
 
EHWO - Woensdrecht Rnla, Netherlands
Distance from station: WZW 50km
Updated: 24-06-2018 08:55
Meestal bewolkt
Meestal bewolkt
 Wind van N
Wind: N 7 km/h
Temperatuur: 15°C
Dauwpunt: 11°C
Vochtigheid: 77%
Barometer: 1024 hPa
Clouds: Meestal bewolkt
Visibility: 10 km
Cloud details: Gedeeltelijk bewolkt 427 m
Meestal bewolkt 579 m
Meestal bewolkt 792 m
2018/06/24 06:55 EHWO 240655Z AUTO 35004KT 270V080 9999 SCT014 BKN019 BKN026 15/11 Q1024 GRN
EHRD - Rotterdam Airpor, Netherlands
Distance from station: NW 56km
Updated: 24-06-2018 08:55
Few Clouds
Few Clouds
 Wind van NNO
Wind: NNO 7 km/h
Temperatuur: 15°C
Dauwpunt: 10°C
Vochtigheid: 72%
Barometer: 1024 hPa
Clouds: Few Clouds
Visibility: 10 km
Cloud details: Few Clouds 640 m
2018/06/24 06:55 EHRD 240655Z AUTO 03004KT 350V080 9999 FEW021 15/10 Q1024 NOSIG
EHDL - Deelen Rnlafb, Netherlands
Distance from station: NO 80km
Updated: 24-06-2018 08:55
Zwaar bewolkt
Zwaar bewolkt
 Wind van N
Wind: N 13 km/h
Temperatuur: 14°C
Dauwpunt: 9°C
Vochtigheid: 72%
Barometer: 1023 hPa
Clouds: Zwaar bewolkt
Visibility: 10 km
Cloud details: Gedeeltelijk bewolkt 549 m
Meestal bewolkt 701 m
Zwaar bewolkt 2835 m
2018/06/24 06:55 EHDL 240655Z AUTO 36007KT 320V050 9999 SCT018 BKN023 OVC093 14/09 Q1023 WHT
 
EHAM - Amsterdam/Schiph, Netherlands
Distance from station: N 83km
Updated: 24-06-2018 08:55
Few Clouds
Few Clouds
 Wind van N
Wind: N 15 km/h
Temperatuur: 14°C
Dauwpunt: 9°C
Vochtigheid: 72%
Barometer: 1024 hPa
Clouds: Few Clouds
Visibility: 10 km
Cloud details: Few Clouds 701 m
2018/06/24 06:55 EHAM 240655Z 35008KT 310V050 9999 FEW023 14/09 Q1024 NOSIG
EHBK - Zuid-Limburg/Bee, Netherlands
Distance from station: ZO 91km
Updated: 24-06-2018 08:55
Mist, Zwaar bewolkt
Mist, Zwaar bewolkt
 Wind van WNW
Wind: WNW 7 km/h
Temperatuur: 12°C
Dauwpunt: 11°C
Vochtigheid: 94%
Barometer: 1023 hPa
Overzicht: Mist
Clouds: Zwaar bewolkt
Visibility: 5 km
Cloud details: Gedeeltelijk bewolkt 122 m
Meestal bewolkt 152 m
Zwaar bewolkt 213 m
2018/06/24 06:55 EHBK 240655Z AUTO 30004KT 230V340 4600 BR SCT004 BKN005 OVC007 12/11 Q1023 BECMG 7000 NSW SCT006
EHFS - Vlissingen, Netherlands
Distance from station: W 99km
Updated: 24-06-2018 08:55
Meestal bewolkt
Meestal bewolkt
 Wind van N
Wind: N 13 km/h
Temperatuur: 15°C
Dauwpunt: 11°C
Vochtigheid: 77%
Barometer: 1024 hPa
Clouds: Meestal bewolkt
Visibility: 10 km
Cloud details: Few Clouds 518 m
Meestal bewolkt 671 m
2018/06/24 06:55 EHFS 240655Z AUTO 36007KT 320V030 9999 FEW017/// BKN022/// 15/11 Q1024 W///H///
 
EHSC - Goeree Le Sea, Netherlands
Distance from station: WNW 100km
Updated: 24-06-2018 08:55

 Wind van N
Wind: N 20 km/h
Temperatuur: 14°C
Dauwpunt: 10°C
Vochtigheid: 77%
Barometer: 1024 hPa
Visibility: 10 km
2018/06/24 06:55 EHSC 240655Z AUTO 01011KT 9999 ///////// 14/10 Q1024 W16/H9
EBBL - Kleine-Brogel(Ba, Belgium
Distance from station: ZO 56km
Updated: 24-06-2018 08:55
Meestal bewolkt
Meestal bewolkt
 Wind van NNW
Wind: NNW 7 km/h
Temperatuur: 14°C
Dauwpunt: 11°C
Vochtigheid: 82%
Clouds: Meestal bewolkt
Visibility: 8 km
Cloud details: Gedeeltelijk bewolkt 213 m
Meestal bewolkt 671 m
Meestal bewolkt 945 m
2018/06/24 06:55 EBBL 240655Z AUTO 33004KT 8000 SCT007/// BKN022/// BKN031/// 14/11
EBAW - Antwerp/Deurne, Belgium
Distance from station: ZW 57km
Updated: 24-06-2018 08:50
Gedeeltelijk bewolkt
Gedeeltelijk bewolkt
 Wind van N
Wind: N 13 km/h
Temperatuur: 15°C
Dauwpunt: 10°C
Vochtigheid: 72%
Barometer: 1024 hPa
Clouds: Gedeeltelijk bewolkt
Visibility: 10 km
Cloud details: Gedeeltelijk bewolkt 579 m
2018/06/24 06:50 EBAW 240650Z 01007KT 330V040 9999 SCT019 15/10 Q1024 NOSIG
 
EBDT - Schaffen, Belgium
Distance from station: Z 63km
Updated: 24-06-2018 08:55
Zwaar bewolkt
Zwaar bewolkt
 Wind van NNW
Wind: NNW 11 km/h
Temperatuur: 14°C
Dauwpunt: 11°C
Vochtigheid: 82%
Barometer: 1024 hPa
Clouds: Zwaar bewolkt
Visibility: 10 km
Cloud details: Gedeeltelijk bewolkt 640 m
Zwaar bewolkt 762 m
2018/06/24 06:55 EBDT 240655Z AUTO 34006KT 9999 SCT021/// OVC025/// 14/11 Q1024 WHT
EBBR - Brussels Nationa, Belgium
Distance from station: ZZW 83km
Updated: 24-06-2018 08:20
Meestal bewolkt
Meestal bewolkt
 Wind van N
Wind: N 9 km/h
Temperatuur: 13°C
Dauwpunt: 10°C
Vochtigheid: 82%
Barometer: 1024 hPa
Clouds: Meestal bewolkt
Visibility: 10 km
Cloud details: Meestal bewolkt 549 m
2018/06/24 06:20 EBBR 240620Z 35005KT 320V020 9999 BKN018 13/10 Q1024 NOSIG
EBBE - Beauvechain (baf, Belgium
Distance from station: Z 94km
Updated: 24-06-2018 08:55
Meestal bewolkt
Meestal bewolkt
 Wind van N
Wind: N 17 km/h
Temperatuur: 13°C
Dauwpunt: 10°C
Vochtigheid: 82%
Barometer: 1024 hPa
Clouds: Meestal bewolkt
Visibility: 10 km
Cloud details: Gedeeltelijk bewolkt 396 m
Meestal bewolkt 518 m
2018/06/24 06:55 EBBE 240655Z 36009KT 9999 SCT013 BKN017 13/10 Q1024 GRN WHT TEMPO GRN
 
EDLV - Niederrhein, Germany
Distance from station: O 79km
Updated: 24-06-2018 08:50
Meestal bewolkt
Meestal bewolkt
 Wind van varies
Wind: varies 6 km/h
Temperatuur: 14°C
Dauwpunt: 11°C
Vochtigheid: 82%
Barometer: 1024 hPa
Clouds: Meestal bewolkt
Visibility: 10 km
Cloud details: Meestal bewolkt 884 m
2018/06/24 06:50 EDLV 240650Z VRB03KT 9999 BKN029 14/11 Q1024
ETNG - Geilenkirchen(Na, Germany
Distance from station: ZO 99km
Updated: 22-06-2018 16:50
NOT Current
Gedeeltelijk bewolkt
Gedeeltelijk bewolkt
 Wind van W
Wind: W 31 km/h
Temperatuur: 16°C
Dauwpunt: 9°C
Vochtigheid: 63%
Barometer: 1027 hPa
Clouds: Gedeeltelijk bewolkt
Visibility: 10 km
Cloud details: Gedeeltelijk bewolkt 914 m
Gedeeltelijk bewolkt 2134 m
2018/06/22 14:50 ETNG 221450Z 28017KT 9999 SCT030 SCT070 16/09 Q1027 NOSIG